Time;durP1;ratioP1;P1;durP2;ratioP2;P2;SDS_P1;SDS_P2;PMS_P1;PMS_P2;Temp;Humidity;BMP_temperature;BMP_pressure;BME280_temperature;BME280_humidity;BME280_pressure;Samples;Min_cycle;Max_cycle;Signal;HPM_P1;HPM_P2
2021/10/26 00:00:32;;;;;;;19.10;16.97;;;;;;;10.64;59.91;98318.22;8398185;28;20247;-65
2021/10/26 00:04:37;;;;;;;19.70;17.67;;;;;;;10.74;59.21;98310.94;8406602;28;20230;-65
2021/10/26 00:08:40;;;;;;;21.13;17.97;;;;;;;10.15;61.30;98314.88;8414910;28;20231;-65
2021/10/26 00:12:43;;;;;;;18.73;16.73;;;;;;;10.54;59.83;98315.13;8415182;28;20238;-65
2021/10/26 00:16:46;;;;;;;21.37;16.13;;;;;;;10.71;59.25;98321.41;8414910;28;20253;-65
2021/10/26 00:20:50;;;;;;;20.83;16.80;;;;;;;10.57;58.98;98317.59;8414790;28;20230;-64
2021/10/26 00:24:53;;;;;;;21.53;16.27;;;;;;;10.62;58.93;98324.34;8414049;28;20254;-65
2021/10/26 00:28:56;;;;;;;20.57;16.80;;;;;;;10.68;58.13;98324.09;8414494;28;20235;-64
2021/10/26 00:32:59;;;;;;;19.37;16.47;;;;;;;10.67;58.92;98325.03;8414448;28;20227;-65
2021/10/26 00:37:04;;;;;;;20.17;16.00;;;;;;;10.83;57.86;98314.88;8414342;28;20241;-65
2021/10/26 00:41:07;;;;;;;18.63;15.60;;;;;;;10.84;57.79;98312.25;8414525;28;20421;-65
2021/10/26 00:45:10;;;;;;;21.90;16.03;;;;;;;10.69;57.84;98310.25;8414452;28;20231;-65
2021/10/26 00:49:13;;;;;;;18.83;16.30;;;;;;;10.66;58.08;98311.22;8413757;28;20233;-65
2021/10/26 00:53:18;;;;;;;18.40;15.93;;;;;;;10.73;57.95;98317.00;8414099;28;20419;-65
2021/10/26 00:57:25;;;;;;;21.57;17.13;;;;;;;10.60;58.13;98316.63;8413937;28;20246;-65
2021/10/26 01:01:28;;;;;;;18.90;16.03;;;;;;;10.80;57.71;98322.81;8411530;28;20227;-65
2021/10/26 01:05:31;;;;;;;20.70;15.23;;;;;;;10.79;57.52;98318.50;8397432;28;20246;-65
2021/10/26 01:09:36;;;;;;;22.53;17.77;;;;;;;10.44;57.91;98312.97;8397236;28;20227;-64
2021/10/26 01:13:39;;;;;;;19.93;15.97;;;;;;;10.66;57.48;98323.31;8397391;28;20227;-65
2021/10/26 01:17:42;;;;;;;18.30;16.33;;;;;;;10.67;57.14;98331.03;8397478;28;20232;-64
2021/10/26 01:21:47;;;;;;;25.73;16.87;;;;;;;10.75;56.98;98323.78;8397276;28;20231;-65
2021/10/26 01:25:50;;;;;;;18.70;15.10;;;;;;;10.61;57.52;98323.50;8396427;28;20249;-65
2021/10/26 01:29:53;;;;;;;20.33;16.30;;;;;;;10.31;58.28;98320.34;8396838;28;20246;-65
2021/10/26 01:33:56;;;;;;;17.63;15.07;;;;;;;10.48;57.32;98322.28;8397840;28;20228;-64
2021/10/26 01:38:01;;;;;;;17.97;15.63;;;;;;;10.47;57.65;98318.00;8403477;28;20247;-64
2021/10/26 01:42:05;;;;;;;20.70;15.07;;;;;;;10.62;57.24;98322.59;8402832;28;20231;-64
2021/10/26 01:46:08;;;;;;;16.10;14.43;;;;;;;10.68;56.88;98318.91;8395821;28;20235;-64
2021/10/26 01:50:12;;;;;;;16.70;15.00;;;;;;;10.61;56.80;98320.91;8402988;28;20239;-65
2021/10/26 01:54:17;;;;;;;21.27;15.40;;;;;;;10.58;57.05;98323.63;8402248;28;20256;-65
2021/10/26 01:58:21;;;;;;;16.23;14.53;;;;;;;10.56;56.40;98322.84;8402559;28;20249;-65
2021/10/26 02:02:25;;;;;;;17.80;15.60;;;;;;;10.56;56.55;98321.09;8402311;28;20235;-65
2021/10/26 02:06:28;;;;;;;19.57;14.87;;;;;;;10.57;56.54;98333.16;8402271;28;20235;-65
2021/10/26 02:10:33;;;;;;;18.27;14.70;;;;;;;10.58;56.10;98331.38;8402311;28;20242;-65
2021/10/26 02:14:36;;;;;;;19.10;15.20;;;;;;;10.53;56.57;98326.41;8402511;28;20233;-65
2021/10/26 02:18:39;;;;;;;17.70;14.60;;;;;;;10.60;56.08;98337.34;8402037;28;20246;-65
2021/10/26 02:22:42;;;;;;;19.43;15.60;;;;;;;10.52;56.50;98329.03;8402045;28;20231;-65
2021/10/26 02:26:46;;;;;;;21.77;16.00;;;;;;;10.43;56.11;98334.56;8401847;28;20428;-65
2021/10/26 02:30:49;;;;;;;20.10;15.73;;;;;;;10.50;56.74;98338.63;8401667;28;20234;-65
2021/10/26 02:34:52;;;;;;;17.00;15.30;;;;;;;10.50;56.22;98351.56;8401850;28;20232;-65
2021/10/26 02:38:55;;;;;;;19.37;15.40;;;;;;;10.34;57.31;98341.78;8401701;28;20231;-65
2021/10/26 02:42:59;;;;;;;17.37;15.47;;;;;;;10.25;57.17;98336.91;8401540;28;20259;-65
2021/10/26 02:47:02;;;;;;;19.10;16.23;;;;;;;10.30;57.38;98334.13;8400440;28;20235;-65
2021/10/26 02:51:05;;;;;;;16.23;14.50;;;;;;;10.44;56.93;98333.69;8401086;28;20238;-65
2021/10/26 02:55:09;;;;;;;16.63;14.53;;;;;;;10.44;57.04;98334.50;8401105;28;20243;-64
2021/10/26 02:59:14;;;;;;;18.33;14.90;;;;;;;10.22;57.64;98347.38;8401181;28;20247;-64
2021/10/26 03:03:16;;;;;;;19.17;15.93;;;;;;;9.61;59.80;98354.72;8399984;28;20233;-65
2021/10/26 03:07:20;;;;;;;17.03;14.50;;;;;;;10.28;57.41;98354.06;8400600;28;20246;-64
2021/10/26 03:11:23;;;;;;;18.80;14.57;;;;;;;10.21;56.69;98357.81;8400463;28;20427;-65
2021/10/26 03:15:28;;;;;;;16.90;14.70;;;;;;;10.39;56.97;98353.72;8400190;28;20234;-65
2021/10/26 03:19:31;;;;;;;15.63;14.00;;;;;;;10.33;57.21;98363.38;8400324;28;20568;-64
2021/10/26 03:23:33;;;;;;;16.67;14.87;;;;;;;10.31;57.06;98372.94;8399762;28;20227;-64
2021/10/26 03:27:36;;;;;;;19.77;16.90;;;;;;;10.24;57.19;98381.81;8400061;28;20258;-65
2021/10/26 03:31:41;;;;;;;18.20;15.90;;;;;;;10.21;56.52;98379.34;8399871;28;20508;-64
2021/10/26 03:35:44;;;;;;;19.20;15.90;;;;;;;10.10;57.06;98387.47;8399594;28;20228;-64
2021/10/26 03:39:54;;;;;;;19.23;15.67;;;;;;;10.18;57.12;98379.44;8399554;28;20231;-64
2021/10/26 03:43:56;;;;;;;19.07;15.50;;;;;;;10.19;57.42;98383.72;8399606;28;20296;-64
2021/10/26 03:48:01;;;;;;;16.10;14.40;;;;;;;10.31;57.12;98387.66;8399251;28;20243;-64
2021/10/26 03:52:04;;;;;;;18.77;14.97;;;;;;;10.24;56.82;98386.16;8399191;28;20231;-64
2021/10/26 03:56:08;;;;;;;17.90;15.63;;;;;;;10.28;56.67;98388.59;8399013;28;20428;-65
2021/10/26 04:00:11;;;;;;;16.90;15.10;;;;;;;10.25;57.04;98378.31;8398083;28;20573;-64
2021/10/26 04:04:15;;;;;;;16.97;15.17;;;;;;;10.24;57.33;98388.72;8398273;28;20395;-64
2021/10/26 04:08:25;;;;;;;18.83;16.63;;;;;;;9.98;58.79;98390.53;8398745;28;20238;-65
2021/10/26 04:12:28;;;;;;;16.57;14.93;;;;;;;10.25;57.93;98387.84;8398784;28;20548;-65
2021/10/26 04:16:30;;;;;;;20.20;16.43;;;;;;;9.91;59.05;98392.47;8398905;28;20245;-64
2021/10/26 04:20:35;;;;;;;16.57;14.87;;;;;;;10.07;58.33;98391.91;8398425;28;20277;-64
2021/10/26 04:24:38;;;;;;;17.47;15.03;;;;;;;10.07;58.67;98395.38;8397807;28;20231;-64
2021/10/26 04:28:41;;;;;;;18.47;15.80;;;;;;;9.75;59.74;98401.66;8398487;28;20231;-64
2021/10/26 04:32:44;;;;;;;19.00;15.33;;;;;;;9.92;59.47;98401.94;8398409;28;20542;-64
2021/10/26 04:36:48;;;;;;;18.17;15.23;;;;;;;10.12;58.70;98406.38;8397976;28;20227;-65
2021/10/26 04:40:57;;;;;;;17.87;15.17;;;;;;;9.92;59.57;98403.69;8397693;28;20228;-64
2021/10/26 04:45:00;;;;;;;17.37;15.17;;;;;;;10.15;58.97;98403.69;8397789;28;20242;-64
2021/10/26 04:49:03;;;;;;;17.43;15.50;;;;;;;10.22;58.38;98401.72;8397482;28;20580;-64
2021/10/26 04:53:08;;;;;;;16.70;14.90;;;;;;;10.29;58.44;98410.97;8404690;28;20230;-64
2021/10/26 04:57:10;;;;;;;18.03;16.13;;;;;;;10.34;58.02;98408.25;8413924;28;20246;-64
2021/10/26 05:01:13;;;;;;;18.03;15.73;;;;;;;10.28;57.93;98411.00;8412951;28;20226;-65
2021/10/26 05:05:17;;;;;;;16.90;15.10;;;;;;;10.33;58.49;98412.56;8397162;28;20246;-65
2021/10/26 05:09:21;;;;;;;19.83;15.00;;;;;;;10.25;58.80;98400.78;8394765;28;20541;-65
2021/10/26 05:13:26;;;;;;;17.00;15.20;;;;;;;9.92;60.25;98419.19;8389559;28;20223;-65
2021/10/26 05:17:29;;;;;;;17.80;15.90;;;;;;;10.12;59.42;98405.56;8383234;28;20265;-64
2021/10/26 05:21:32;;;;;;;21.93;19.13;;;;;;;9.43;63.15;98418.25;8380469;28;20243;-65
2021/10/26 05:25:37;;;;;;;21.77;19.33;;;;;;;9.89;60.78;98422.72;8380255;28;20231;-64
2021/10/26 05:29:41;;;;;;;20.17;18.07;;;;;;;10.21;60.04;98419.91;8380232;28;20239;-65
2021/10/26 05:33:43;;;;;;;22.53;18.83;;;;;;;10.01;60.85;98421.44;8380339;28;20426;-64
2021/10/26 05:37:46;;;;;;;22.17;17.70;;;;;;;9.87;60.98;98428.84;8380364;28;20265;-64
2021/10/26 05:41:51;;;;;;;24.23;18.13;;;;;;;9.94;61.12;98433.75;8380589;28;20250;-64
2021/10/26 05:45:55;;;;;;;21.07;17.63;;;;;;;10.30;60.22;98429.91;8380262;28;20238;-65
2021/10/26 05:49:58;;;;;;;22.13;18.30;;;;;;;10.36;59.79;98432.34;8380521;28;20247;-64
2021/10/26 05:54:01;;;;;;;22.97;18.20;;;;;;;10.51;59.41;98436.97;8380531;28;20237;-64
2021/10/26 05:58:07;;;;;;;19.83;16.03;;;;;;;10.37;60.07;98440.03;8380425;28;20289;-64
2021/10/26 06:02:10;;;;;;;17.70;15.03;;;;;;;10.13;61.30;98451.25;8385245;28;20534;-64
2021/10/26 06:06:13;;;;;;;18.10;16.17;;;;;;;10.04;61.35;98452.41;8396114;28;20514;-64
2021/10/26 06:10:17;;;;;;;21.33;16.67;;;;;;;9.95;61.59;98452.72;8396257;28;20238;-64
2021/10/26 06:14:21;;;;;;;21.63;16.57;;;;;;;10.27;60.68;98464.53;8397264;28;20414;-64
2021/10/26 06:18:24;;;;;;;22.07;17.57;;;;;;;10.00;61.89;98471.53;8412459;28;20235;-64
2021/10/26 06:22:27;;;;;;;18.47;16.20;;;;;;;10.30;60.75;98468.75;8415182;28;20419;-64
2021/10/26 06:26:30;;;;;;;18.70;16.13;;;;;;;10.08;61.60;98485.03;8418566;28;20242;-64
2021/10/26 06:30:34;;;;;;;19.63;16.77;;;;;;;10.07;61.84;98485.09;8418426;28;20231;-64
2021/10/26 06:34:37;;;;;;;19.40;17.37;;;;;;;9.98;62.54;98497.44;8418275;28;20231;-64
2021/10/26 06:38:40;;;;;;;21.00;16.50;;;;;;;10.18;61.66;98501.97;8418158;28;20231;-64
2021/10/26 06:42:43;;;;;;;23.20;18.07;;;;;;;9.98;62.37;98505.19;8417969;28;20223;-64
2021/10/26 06:46:47;;;;;;;21.67;17.87;;;;;;;9.86;63.25;98507.34;8417703;28;20238;-64
2021/10/26 06:50:50;;;;;;;23.87;19.00;;;;;;;10.25;62.51;98504.31;8417656;28;20235;-64
2021/10/26 06:54:53;;;;;;;24.83;21.73;;;;;;;10.32;62.03;98509.28;8417880;28;20429;-64
2021/10/26 06:58:56;;;;;;;21.33;18.43;;;;;;;10.33;62.34;98521.31;8417595;28;20245;-64
2021/10/26 07:03:03;;;;;;;33.97;29.97;;;;;;;10.08;63.02;98521.25;8409002;28;20230;-64
2021/10/26 07:07:06;;;;;;;37.80;33.70;;;;;;;10.00;64.00;98518.09;8400683;28;20235;-64
2021/10/26 07:11:08;;;;;;;32.10;23.77;;;;;;;10.46;62.72;98526.06;8400602;28;20565;-64
2021/10/26 07:15:13;;;;;;;29.13;22.40;;;;;;;10.39;63.18;98540.13;8400468;28;20542;-64
2021/10/26 07:19:18;;;;;;;19.67;17.60;;;;;;;10.68;62.55;98534.78;8399746;28;20420;-64
2021/10/26 07:23:20;;;;;;;21.23;17.70;;;;;;;10.44;63.31;98535.63;8399746;28;20238;-64
2021/10/26 07:27:24;;;;;;;23.00;18.83;;;;;;;10.50;63.81;98538.00;8400189;28;20234;-64
2021/10/26 07:31:27;;;;;;;19.53;16.87;;;;;;;10.60;63.59;98547.13;8399955;28;20235;-64
2021/10/26 07:35:36;;;;;;;19.30;16.37;;;;;;;10.89;62.69;98553.03;8399673;28;20424;-64
2021/10/26 07:39:45;;;;;;;21.20;17.03;;;;;;;11.03;62.22;98548.19;8399690;28;20236;-64
2021/10/26 07:43:48;;;;;;;17.67;15.87;;;;;;;11.27;61.63;98551.63;8399321;28;20227;-64
2021/10/26 07:47:51;;;;;;;19.00;15.63;;;;;;;11.26;62.52;98554.28;8399054;28;20234;-64
2021/10/26 07:51:56;;;;;;;20.17;18.03;;;;;;;11.13;62.81;98561.66;8398791;28;20231;-64
2021/10/26 07:56:00;;;;;;;21.70;16.80;;;;;;;11.33;62.61;98563.50;8398770;28;20242;-65
2021/10/26 08:00:05;;;;;;;18.50;16.33;;;;;;;11.53;62.03;98573.09;8398928;28;20235;-64
2021/10/26 08:04:11;;;;;;;21.43;16.53;;;;;;;11.65;62.25;98579.56;8398545;28;20415;-64
2021/10/26 08:08:17;;;;;;;18.80;15.97;;;;;;;11.72;62.02;98573.25;8398085;28;20234;-65
2021/10/26 08:12:21;;;;;;;19.40;15.97;;;;;;;11.75;62.71;98573.13;8398466;28;20454;-64
2021/10/26 08:16:24;;;;;;;20.00;16.50;;;;;;;11.97;62.30;98575.72;8398343;28;20231;-64
2021/10/26 08:20:26;;;;;;;19.50;17.40;;;;;;;12.11;61.87;98583.81;8398247;28;20237;-64
2021/10/26 08:24:32;;;;;;;19.57;16.50;;;;;;;12.22;61.65;98588.59;8397946;28;20239;-64
2021/10/26 08:28:37;;;;;;;18.77;16.23;;;;;;;12.29;61.83;98589.16;8397898;28;20235;-64
2021/10/26 08:36:52;;;;;;;22.53;17.50;;;;;;;12.46;62.48;98585.84;8397852;28;20239;-64
2021/10/26 08:40:58;;;;;;;24.90;17.30;;;;;;;12.51;62.03;98594.31;8397772;28;20237;-64
2021/10/26 08:45:02;;;;;;;26.90;18.57;;;;;;;12.39;63.87;98594.81;8397086;28;20421;-64
2021/10/26 08:49:05;;;;;;;20.03;16.43;;;;;;;12.68;63.21;98589.25;8397736;28;20234;-64
2021/10/26 08:53:08;;;;;;;24.77;19.77;;;;;;;12.97;62.58;98583.69;8399363;28;20242;-64
2021/10/26 08:57:12;;;;;;;20.92;18.70;;;;;;;13.47;60.88;98580.56;8413084;28;20471;-62
2021/10/26 09:01:15;;;;;;;19.60;16.33;;;;;;;13.34;62.20;98580.28;8413048;28;20260;-61
2021/10/26 09:05:20;;;;;;;18.70;16.70;;;;;;;13.59;61.80;98582.59;8397930;28;20243;-62
2021/10/26 09:09:25;;;;;;;17.67;15.37;;;;;;;13.93;61.60;98575.78;8397160;28;20305;-62
2021/10/26 09:17:50;;;;;;;17.60;12.27;;;;;;;15.70;58.57;98568.44;8396663;28;20292;-60
2021/10/26 09:22:00;;;;;;;17.40;13.07;;;;;;;15.80;57.78;98567.88;8396725;28;20243;-60
2021/10/26 09:26:02;;;;;;;14.33;12.13;;;;;;;15.90;57.42;98572.59;8396518;28;20227;-60
2021/10/26 09:30:10;;;;;;;19.57;11.30;;;;;;;15.80;57.46;98565.25;8396442;28;20394;-60
2021/10/26 09:34:16;;;;;;;13.90;11.13;;;;;;;15.89;57.41;98571.72;8396009;28;20525;-63
2021/10/26 09:38:28;;;;;;;15.93;9.80;;;;;;;15.44;58.74;98566.34;8396896;28;20423;-62
2021/10/26 09:42:40;;;;;;;10.90;9.40;;;;;;;15.54;59.20;98565.84;8396355;28;20320;-63
2021/10/26 09:46:51;;;;;;;9.70;8.40;;;;;;;15.59;58.76;98566.41;8396881;28;20231;-62
2021/10/26 09:51:02;;;;;;;12.17;9.17;;;;;;;15.45;59.59;98564.56;8396591;28;20242;-62
2021/10/26 09:55:18;;;;;;;11.30;8.67;;;;;;;16.29;57.36;98568.59;8396587;28;20239;-62
2021/10/26 09:59:21;;;;;;;15.13;8.53;;;;;;;15.73;58.04;98576.09;8403149;28;20254;-62
2021/10/26 10:03:26;;;;;;;11.70;7.13;;;;;;;16.34;55.69;98587.47;8402588;28;20243;-63
2021/10/26 10:07:31;;;;;;;8.83;6.30;;;;;;;17.67;53.67;98588.16;8402367;28;20235;-62
2021/10/26 10:11:34;;;;;;;9.23;6.80;;;;;;;18.10;51.95;98582.81;8402336;28;20231;-63
2021/10/26 10:15:38;;;;;;;7.73;5.40;;;;;;;18.72;50.73;98590.91;8402669;28;20227;-63
2021/10/26 10:19:42;;;;;;;8.20;5.63;;;;;;;19.02;48.30;98578.44;8402321;28;20231;-62
2021/10/26 10:23:47;;;;;;;8.67;5.10;;;;;;;19.17;47.97;98585.25;8401940;28;20227;-63
2021/10/26 10:27:54;;;;;;;7.53;5.07;;;;;;;19.43;47.44;98579.97;8402284;28;20410;-63
2021/10/26 10:31:57;;;;;;;7.67;5.33;;;;;;;18.71;48.70;98575.28;8402066;28;20289;-63
2021/10/26 10:36:04;;;;;;;9.50;7.30;;;;;;;18.00;49.28;98572.09;8401616;28;20230;-63
2021/10/26 10:40:08;;;;;;;9.23;5.03;;;;;;;17.55;50.14;98574.06;8401840;28;20309;-63
2021/10/26 10:44:37;;;;;;;7.50;5.00;;;;;;;17.93;49.58;98566.44;8401429;28;20227;-63
2021/10/26 10:48:40;;;;;;;7.63;4.67;;;;;;;18.95;47.79;98570.16;8401643;28;20233;-62
2021/10/26 10:52:45;;;;;;;7.53;4.60;;;;;;;18.14;48.02;98564.19;8400969;28;20337;-62
2021/10/26 10:56:59;;;;;;;10.43;5.00;;;;;;;17.69;49.39;98570.59;8400563;28;20238;-63
2021/10/26 11:01:27;;;;;;;8.10;4.57;;;;;;;17.34;51.04;98571.03;8400702;28;20231;-63
2021/10/26 11:05:41;;;;;;;10.80;9.33;;;;;;;17.09;53.00;98571.72;8393816;28;20227;-71
2021/10/26 11:09:51;;;;;;;6.77;6.03;;;;;;;16.97;51.94;98575.94;8399954;28;20542;-65
2021/10/26 11:14:16;;;;;;;7.97;5.00;;;;;;;16.67;52.13;98573.34;8400429;28;20230;-65
2021/10/26 11:18:41;;;;;;;5.77;4.30;;;;;;;16.60;52.53;98572.84;8399717;28;20420;-64
2021/10/26 11:22:50;;;;;;;5.63;3.73;;;;;;;16.39;52.35;98572.34;8399889;28;20234;-64
2021/10/26 11:26:55;;;;;;;8.43;4.10;;;;;;;16.29;53.53;98566.81;8399991;28;20419;-64
2021/10/26 11:31:01;;;;;;;7.10;4.17;;;;;;;16.54;52.83;98563.59;8399742;28;20230;-65
2021/10/26 11:35:16;;;;;;;5.80;4.40;;;;;;;16.46;53.19;98568.44;8399666;28;20237;-64
2021/10/26 11:39:19;;;;;;;9.33;6.97;;;;;;;16.58;53.46;98559.03;8399093;28;20223;-65
2021/10/26 11:43:24;;;;;;;9.13;7.60;;;;;;;16.54;53.34;98558.38;8399486;28;20246;-65
2021/10/26 11:47:27;;;;;;;7.13;5.60;;;;;;;16.65;52.88;98559.53;8399617;28;20231;-65
2021/10/26 11:51:32;;;;;;;6.87;4.27;;;;;;;16.72;53.18;98563.47;8399484;28;20546;-64
2021/10/26 11:55:34;;;;;;;9.10;5.60;;;;;;;16.51;53.66;98561.19;8398947;28;20526;-65
2021/10/26 11:59:40;;;;;;;7.47;4.20;;;;;;;16.35;54.23;98566.47;8388314;28;20242;-65
2021/10/26 12:03:47;;;;;;;5.50;3.20;;;;;;;16.22;54.12;98560.25;8395874;28;20232;-64
2021/10/26 12:07:51;;;;;;;8.40;3.60;;;;;;;15.74;55.43;98564.75;8398678;28;20523;-65
2021/10/26 12:11:59;;;;;;;6.17;3.63;;;;;;;15.86;55.42;98566.69;8398534;28;20235;-65
2021/10/26 12:16:15;;;;;;;11.60;8.43;;;;;;;15.97;55.62;98560.84;8398438;28;20235;-66
2021/10/26 12:20:19;;;;;;;8.73;6.20;;;;;;;15.62;56.75;98569.69;8397198;28;20254;-66
2021/10/26 12:24:24;;;;;;;12.77;7.97;;;;;;;15.73;56.74;98569.13;8391034;28;20239;-64
2021/10/26 12:28:27;;;;;;;13.13;7.57;;;;;;;15.54;57.11;98581.50;8397916;28;20239;-65
2021/10/26 12:32:34;;;;;;;6.30;4.43;;;;;;;16.45;54.67;98576.38;8395714;28;20421;-63
2021/10/26 12:36:36;;;;;;;6.63;3.90;;;;;;;16.69;54.98;98572.31;8397984;28;20234;-63
2021/10/26 12:40:42;;;;;;;7.77;4.27;;;;;;;16.86;53.99;98573.94;8394675;28;20237;-63
2021/10/26 12:44:53;;;;;;;5.70;3.73;;;;;;;16.84;52.97;98575.81;8401442;28;20254;-63
2021/10/26 12:49:06;;;;;;;3.53;2.50;;;;;;;16.86;52.68;98566.09;8397368;28;20510;-63
2021/10/26 12:53:19;;;;;;;3.43;1.93;;;;;;;16.36;52.89;98567.31;8396937;28;20294;-64
2021/10/26 12:57:38;;;;;;;3.10;2.03;;;;;;;15.99;52.67;98577.25;8397240;28;20239;-63
2021/10/26 13:01:42;;;;;;;6.20;2.30;;;;;;;16.01;52.85;98568.44;8393028;28;20231;-63
2021/10/26 13:05:53;;;;;;;4.77;2.20;;;;;;;15.77;52.35;98560.19;8380516;28;20292;-63
2021/10/26 13:09:56;;;;;;;3.00;2.17;;;;;;;15.98;53.18;98567.75;8380497;28;20246;-63
2021/10/26 13:14:04;;;;;;;3.33;1.90;;;;;;;16.03;52.94;98563.97;8380269;28;20232;-63
2021/10/26 13:18:09;;;;;;;4.63;2.67;;;;;;;15.77;53.86;98557.59;8380375;28;20575;-63
2021/10/26 13:22:15;;;;;;;5.30;2.40;;;;;;;15.81;53.75;98559.09;8396383;28;20418;-65
2021/10/26 13:26:18;;;;;;;3.67;2.00;;;;;;;15.72;54.87;98564.78;8397054;28;20313;-64
2021/10/26 13:30:21;;;;;;;5.30;2.40;;;;;;;15.80;54.42;98565.25;8397663;28;20246;-63
2021/10/26 13:34:24;;;;;;;3.57;1.90;;;;;;;16.13;53.88;98564.25;8403503;28;20237;-62
2021/10/26 13:38:29;;;;;;;4.03;2.10;;;;;;;16.90;51.60;98561.53;8403049;28;20238;-63
2021/10/26 13:42:32;;;;;;;5.63;2.00;;;;;;;17.17;50.82;98559.00;8403843;28;20258;-63
2021/10/26 13:46:35;;;;;;;5.90;2.40;;;;;;;17.18;50.88;98564.13;8403386;28;20227;-64
2021/10/26 13:50:40;;;;;;;3.47;1.77;;;;;;;17.33;50.49;98572.00;8395820;28;20235;-64
2021/10/26 13:54:44;;;;;;;4.03;2.27;;;;;;;17.32;50.80;98567.66;8394629;28;20231;-64
2021/10/26 13:58:47;;;;;;;3.53;2.10;;;;;;;17.57;49.81;98551.25;8399115;28;20240;-64
2021/10/26 14:02:50;;;;;;;4.03;2.30;;;;;;;17.67;49.90;98544.50;8398986;28;20238;-64
2021/10/26 14:06:53;;;;;;;4.23;2.50;;;;;;;17.76;49.67;98557.00;8383220;28;20304;-64
2021/10/26 14:10:57;;;;;;;5.60;2.60;;;;;;;17.70;49.13;98573.09;8396134;28;20453;-65
2021/10/26 14:15:01;;;;;;;4.87;2.40;;;;;;;17.87;48.88;98564.19;8385635;28;20238;-63
2021/10/26 14:19:04;;;;;;;3.97;2.60;;;;;;;17.96;48.90;98560.97;8385521;28;20235;-64
2021/10/26 14:23:07;;;;;;;5.83;3.40;;;;;;;17.82;48.31;98554.91;8385303;28;20251;-64
2021/10/26 14:27:11;;;;;;;5.03;3.00;;;;;;;17.26;50.04;98568.91;8370051;28;20224;-64
2021/10/26 14:31:17;;;;;;;5.57;3.53;;;;;;;17.14;50.99;98567.88;8397882;28;20223;-64
2021/10/26 14:35:22;;;;;;;4.33;2.40;;;;;;;16.93;51.86;98566.59;8400969;28;20223;-64
2021/10/26 14:39:51;;;;;;;5.90;2.47;;;;;;;17.14;51.02;98562.66;8399191;28;20224;-64
2021/10/26 14:53:08;;;;;;;5.23;2.83;;;;;;;16.57;52.64;98563.44;8298786;28;20233;-64
2021/10/26 14:57:13;;;;;;;7.63;2.33;;;;;;;16.41;52.98;98576.56;8349786;28;20246;-64
2021/10/26 15:01:18;;;;;;;6.47;4.13;;;;;;;16.26;53.79;98574.00;8393056;28;20227;-64
2021/10/26 15:05:21;;;;;;;7.13;4.50;;;;;;;16.74;53.10;98588.59;8393650;28;20414;-63
2021/10/26 15:09:27;;;;;;;8.90;4.33;;;;;;;16.29;54.54;98589.50;8392579;28;20261;-63
2021/10/26 15:13:35;;;;;;;7.20;3.27;;;;;;;16.17;54.66;98580.59;8392411;28;20227;-62
2021/10/26 15:17:41;;;;;;;6.23;3.00;;;;;;;16.09;55.39;98591.50;8392237;28;20235;-63
2021/10/26 15:21:54;;;;;;;4.00;2.80;;;;;;;15.99;55.75;98600.78;8381428;28;20227;-63
2021/10/26 15:34:36;;;;;;;6.83;5.33;;;;;;;15.77;57.01;98603.75;8392583;28;20242;-63
2021/10/26 15:38:39;;;;;;;8.63;6.43;;;;;;;15.72;57.54;98614.41;8375415;28;20224;-63
2021/10/26 15:42:44;;;;;;;7.77;5.20;;;;;;;15.73;57.02;98607.44;8386385;28;20234;-64
2021/10/26 15:46:46;;;;;;;9.10;6.90;;;;;;;15.69;57.62;98608.50;8386893;28;20495;-64
2021/10/26 15:50:51;;;;;;;10.97;7.10;;;;;;;15.68;57.18;98618.13;8382257;28;20231;-65
2021/10/26 15:54:54;;;;;;;8.13;6.57;;;;;;;15.62;57.68;98621.06;8383333;28;20480;-63
2021/10/26 15:58:56;;;;;;;9.27;6.50;;;;;;;15.56;58.03;98624.03;8383066;28;20242;-64
2021/10/26 16:03:00;;;;;;;17.17;8.40;;;;;;;15.52;58.62;98632.94;8376060;28;20232;-64
2021/10/26 16:07:05;;;;;;;52.03;19.73;;;;;;;15.46;58.43;98639.34;8385714;28;20542;-64
2021/10/26 16:11:10;;;;;;;56.13;19.00;;;;;;;15.40;58.36;98655.31;8381860;28;20235;-64
2021/10/26 16:15:18;;;;;;;40.80;16.53;;;;;;;15.38;58.48;98652.81;8389813;28;20411;-65
2021/10/26 16:19:22;;;;;;;29.97;15.17;;;;;;;15.27;58.55;98647.31;8381887;28;20232;-64
2021/10/26 16:23:26;;;;;;;28.17;17.97;;;;;;;15.25;58.47;98654.38;8381707;28;20235;-64
2021/10/26 16:27:32;;;;;;;31.87;15.20;;;;;;;15.22;58.88;98660.56;8381763;28;20232;-64
2021/10/26 16:31:36;;;;;;;29.53;23.07;;;;;;;15.18;58.86;98660.81;8381192;28;20255;-63
2021/10/26 16:35:41;;;;;;;27.73;21.73;;;;;;;15.13;58.98;98665.44;8381322;28;20529;-64
2021/10/26 16:39:46;;;;;;;21.27;15.25;;;;;;;15.28;58.57;98666.41;8381057;28;20401;-63
2021/10/26 16:44:01;;;;;;;22.40;14.23;;;;;;;15.04;59.32;98666.72;8380964;28;20242;-63
2021/10/26 16:48:04;;;;;;;20.70;15.57;;;;;;;14.94;59.52;98671.56;8381262;28;20231;-63
2021/10/26 16:52:07;;;;;;;38.07;27.93;;;;;;;14.87;59.32;98672.84;8381049;28;20243;-63
2021/10/26 16:56:12;;;;;;;20.40;11.87;;;;;;;14.88;59.22;98682.34;8380761;28;20548;-63
2021/10/26 17:00:15;;;;;;;21.07;15.50;;;;;;;14.83;59.28;98690.41;8397049;28;20234;-63
2021/10/26 17:04:18;;;;;;;22.10;16.50;;;;;;;14.68;60.00;98696.38;8396746;28;20235;-63
2021/10/26 17:08:23;;;;;;;19.27;16.20;;;;;;;14.72;59.65;98697.91;8397141;28;20422;-63
2021/10/26 17:12:30;;;;;;;21.10;13.20;;;;;;;14.68;59.42;98696.38;8397232;28;20239;-62
2021/10/26 17:16:33;;;;;;;13.87;11.30;;;;;;;14.59;59.88;98695.06;8396780;28;20321;-63
2021/10/26 17:20:36;;;;;;;12.10;9.03;;;;;;;14.57;59.37;98693.47;8397113;28;20226;-63
2021/10/26 17:24:39;;;;;;;19.23;11.87;;;;;;;14.56;59.21;98704.75;8397154;28;20257;-63
2021/10/26 17:28:43;;;;;;;15.03;10.97;;;;;;;14.54;58.80;98714.41;8397167;28;20230;-64
2021/10/26 17:32:46;;;;;;;14.17;9.97;;;;;;;14.49;58.81;98722.47;8396927;28;20422;-64
2021/10/26 17:36:49;;;;;;;11.20;8.37;;;;;;;14.40;58.99;98726.34;8396704;28;20226;-64
2021/10/26 17:41:06;;;;;;;13.07;7.47;;;;;;;14.33;59.12;98718.91;8396781;28;20233;-64
2021/10/26 17:45:14;;;;;;;10.93;7.03;;;;;;;14.25;58.94;98727.91;8396685;28;20428;-64
2021/10/26 17:49:17;;;;;;;11.50;6.97;;;;;;;14.23;58.74;98734.13;8396307;28;20227;-65
2021/10/26 17:53:26;;;;;;;9.90;7.97;;;;;;;14.10;58.50;98746.88;8396472;28;20242;-64
2021/10/26 17:57:29;;;;;;;12.73;9.60;;;;;;;14.08;58.82;98744.31;8396509;28;20239;-63
2021/10/26 18:01:36;;;;;;;13.90;10.30;;;;;;;13.95;58.83;98740.59;8396722;28;20232;-63
2021/10/26 18:05:39;;;;;;;14.27;11.70;;;;;;;13.89;58.61;98741.72;8396445;28;20234;-63
2021/10/26 18:09:42;;;;;;;14.70;12.30;;;;;;;14.00;58.32;98736.03;8396073;28;20408;-64
2021/10/26 18:13:46;;;;;;;14.27;12.27;;;;;;;13.84;58.59;98745.44;8396680;28;20269;-64
2021/10/26 18:17:50;;;;;;;11.93;10.60;;;;;;;13.83;58.71;98752.41;8398376;28;20510;-64
2021/10/26 18:21:53;;;;;;;15.90;12.13;;;;;;;13.72;58.82;98754.66;8402527;28;20544;-64
2021/10/26 18:25:57;;;;;;;18.57;11.37;;;;;;;13.69;58.97;98762.63;8402499;28;20233;-64
2021/10/26 18:30:09;;;;;;;15.23;11.00;;;;;;;13.65;58.89;98764.50;8402540;28;20234;-64
2021/10/26 18:34:14;;;;;;;14.30;11.47;;;;;;;13.59;59.02;98756.94;8390462;28;20232;-64
2021/10/26 18:38:19;;;;;;;12.60;9.27;;;;;;;13.54;58.78;98758.94;8373968;28;20232;-65
2021/10/26 18:42:31;;;;;;;10.97;9.50;;;;;;;13.51;58.87;98758.22;8367550;28;20431;-64
2021/10/26 18:46:34;;;;;;;15.77;9.77;;;;;;;13.42;58.79;98752.50;8392967;28;20234;-64
2021/10/26 18:50:39;;;;;;;14.13;12.00;;;;;;;13.42;58.83;98762.03;8400153;28;20292;-65
2021/10/26 18:54:42;;;;;;;15.67;11.40;;;;;;;13.39;58.88;98757.84;8400123;28;20239;-64
2021/10/26 18:58:46;;;;;;;14.67;10.77;;;;;;;13.33;57.76;98758.09;8399851;28;20572;-64
2021/10/26 19:02:49;;;;;;;15.40;11.87;;;;;;;13.26;58.14;98757.47;8400059;28;20228;-64
2021/10/26 19:06:55;;;;;;;16.07;11.50;;;;;;;13.26;58.02;98756.63;8399325;28;20431;-65
2021/10/26 19:10:58;;;;;;;13.60;10.90;;;;;;;13.16;58.21;98752.75;8399934;28;20239;-63
2021/10/26 19:15:01;;;;;;;15.00;11.60;;;;;;;13.18;58.68;98759.56;8399524;28;20557;-63
2021/10/26 19:19:04;;;;;;;12.40;9.73;;;;;;;13.13;58.46;98758.91;8399332;28;20241;-63